Vores vejrinfo findes også på:

UK Metoffice

European Weather Network

Weather Underground



Stationer ""tæt på"" METAR Rapporter

   
EKEB - Esbjerg, Denmark
Afstand fra denne vejrstation: NNV 29 km
Opdateret: 01-10-2020 09:50
Få skyer  
Få skyer  
   Vind fra: ØSØ 7.2 m/s
Vind fra: ØSØ 7.2 m/s
Temperatur: 15°C
Dugpunkt: 13°C
Luftfugtighed: 88%
Barometer: 1007 hPa
Skyer: Få skyer
Sigtbarhed: More than 10 km
Sky detaljer: Få skyer 1100 ft
EKEB 010750Z AUTO 12014KT 9999 FEW011/// 15/13 Q1007
EKSP - Skrydstrup(Dan-A, Denmark
Afstand fra denne vejrstation: Ø 35 km
Opdateret: 01-10-2020 09:50
Delvis overskyet  
Delvis overskyet  
   Vind fra: ØSØ 6.2 m/s
Vind fra: ØSØ 6.2 m/s
Temperatur: 14°C
Dugpunkt: 13°C
Luftfugtighed: 94%
Barometer: 1007 hPa
Skyer: Delvis overskyet
Sigtbarhed: More than 10 km
Sky detaljer: Få skyer 500 ft,
Delvis overskyet 1200 ft
EKSP 010750Z 12012KT 9999 FEW005 SCT012 14/13 Q1007 BECMG 12012G25KT
EKBI - Billund Airport, Denmark
Afstand fra denne vejrstation: NNØ 56 km
Opdateret: 01-10-2020 09:50
Overskyet  
Overskyet  
   Vind fra: ØSØ 5.7 m/s
Vind fra: ØSØ 5.7 m/s
Temperatur: 14°C
Dugpunkt: 12°C
Luftfugtighed: 88%
Barometer: 1008 hPa
Skyer: Overskyet
Sigtbarhed: More than 10 km
Sky detaljer: Overskyet 1300 ft
EKBI 010750Z AUTO 11011KT 9999 OVC013/// 14/12 Q1008
EKSB - Sonderborg Airpo, Denmark
Afstand fra denne vejrstation: ØSØ 76 km
Opdateret: 01-10-2020 09:50
Mest overskyet  
Mest overskyet  
   Vind fra: ØSØ 7.2 m/s
Vind fra: ØSØ 7.2 m/s
Temperatur: 15°C
Dugpunkt: 13°C
Luftfugtighed: 88%
Barometer: 1008 hPa
Skyer: Mest overskyet
Sigtbarhed: 8 km
Sky detaljer: Delvis overskyet 700 ft,
Mest overskyet 900 ft
EKSB 010750Z 12014KT 8000 SCT007 BKN009 15/13 Q1008
EKVD - Vamdrup (aut/man), Denmark
Afstand fra denne vejrstation: ØNØ 41 km
Opdateret: 01-10-2020 09:50
Mest overskyet  
Mest overskyet  
   Vind fra: ØSØ 6.7 m/s
Vind fra: ØSØ 6.7 m/s
Temperatur: 15°C
Dugpunkt: 13°C
Luftfugtighed: 88%
Barometer: 1008 hPa
Skyer: Mest overskyet
Sigtbarhed: More than 10 km
Sky detaljer: Mest overskyet 800 ft
EKVD 010750Z 11013KT 9999 BKN008 15/13 Q1008
EDXW - Westerland/Sylt, Germany
Afstand fra denne vejrstation: SSV 47 km
Opdateret: 01-10-2020 09:50
Klart  
Klart  
   Vind fra: ØSØ 8.2 m/s
Vind fra: ØSØ 8.2 m/s
Temperatur: 14°C
Dugpunkt: 11°C
Luftfugtighed: 82%
Barometer: 1006 hPa
Sigtbarhed: More than 10 km
Sky detaljer: Klart
EDXW 010750Z 12016KT CAVOK 14/11 Q1006

Original script by  Saratoga-weather.org Adapted for the template by  Weerstation Leuven

Der anvendes følgende:

Vejrstation
Davis VP2

Vejrprogram
Meteohub

Server
RaspberryPI 3 model B

Davis VP2

Meteohub

RaspberryPI 3 model B